Time;durP1;ratioP1;P1;durP2;ratioP2;P2;SDS_P1;SDS_P2;PMS_P1;PMS_P2;Temp;Humidity;BMP_temperature;BMP_pressure;BME280_temperature;BME280_humidity;BME280_pressure;Samples;Min_cycle;Max_cycle;Signal;HPM_P1;HPM_P2
2024/02/23 00:00:01;;;;;;;;;;;;;;;12.36;74.04;99469.41;4855076;29;19915;-81
2024/02/23 00:02:53;;;;;;;;;;;;;;;12.49;73.28;99461.91;4860810;29;19916;-81
2024/02/23 00:05:46;;;;;;;;;;;;;;;12.46;73.01;99452.50;4859095;29;19920;-81
2024/02/23 00:08:38;;;;;;;;;;;;;;;12.38;73.22;99448.84;4849727;29;19920;-81
2024/02/23 00:11:33;;;;;;;;;;;;;;;12.47;72.68;99432.25;4850668;29;20317;-81
2024/02/23 00:14:24;;;;;;;;;;;;;;;12.50;72.70;99436.19;4850432;29;19920;-82
2024/02/23 00:17:16;;;;;;;;;;;;;;;12.48;72.73;99443.97;4873322;29;19919;-81
2024/02/23 00:20:08;;;;;;;;;;;;;;;12.43;72.74;99451.28;4870174;29;19919;-81
2024/02/23 00:23:01;;;;;;;;;;;;;;;12.38;72.88;99445.31;4873446;29;20373;-81
2024/02/23 00:25:53;;;;;;;;;;;;;;;12.38;73.07;99439.88;4872833;29;19920;-83
2024/02/23 00:28:44;;;;;;;;;;;;;;;12.36;73.25;99432.03;4869177;29;19916;-82
2024/02/23 00:31:36;;;;;;;;;;;;;;;12.38;73.39;99420.78;4864869;29;19916;-81
2024/02/23 00:34:26;;;;;;;;;;;;;;;12.36;72.87;99412.97;4852183;29;19920;-80
2024/02/23 00:37:17;;;;;;;;;;;;;;;12.42;72.91;99402.56;4850171;29;19916;-81
2024/02/23 00:40:09;;;;;;;;;;;;;;;12.39;72.76;99398.59;4864087;29;19915;-81
2024/02/23 00:43:01;;;;;;;;;;;;;;;12.38;72.91;99390.81;4851819;29;19916;-81
2024/02/23 00:45:54;;;;;;;;;;;;;;;12.37;73.02;99395.47;4864556;29;19915;-81
2024/02/23 00:48:46;;;;;;;;;;;;;;;12.41;72.90;99385.41;4869982;29;19919;-81
2024/02/23 00:51:38;;;;;;;;;;;;;;;12.41;72.88;99385.41;4866408;29;19916;-81
2024/02/23 00:54:30;;;;;;;;;;;;;;;12.37;72.75;99379.09;4848942;29;19920;-81
2024/02/23 00:57:27;;;;;;;;;;;;;;;12.42;72.59;99370.63;4851708;29;19919;-81
2024/02/23 01:00:19;;;;;;;;;;;;;;;12.48;72.23;99367.63;4850150;29;19916;-80
2024/02/23 01:03:06;;;;;;;;;;;;;;;12.48;71.92;99362.97;4862038;29;20305;-81
2024/02/23 01:05:57;;;;;;;;;;;;;;;12.48;71.89;99359.44;4863686;29;19915;-81
2024/02/23 01:08:49;;;;;;;;;;;;;;;12.46;71.91;99357.06;4867684;29;19920;-81
2024/02/23 01:11:41;;;;;;;;;;;;;;;12.41;72.03;99351.91;4881627;29;19915;-80
2024/02/23 01:14:33;;;;;;;;;;;;;;;12.42;72.53;99348.81;4869102;29;19920;-81
2024/02/23 01:17:25;;;;;;;;;;;;;;;12.40;72.27;99344.88;4871824;29;19916;-81
2024/02/23 01:20:17;;;;;;;;;;;;;;;12.38;71.89;99331.63;4881494;29;19916;-79
2024/02/23 01:23:09;;;;;;;;;;;;;;;12.38;72.05;99319.91;4848684;29;19920;-81
2024/02/23 01:25:58;;;;;;;;;;;;;;;12.38;71.31;99315.25;4852884;29;19920;-81
2024/02/23 01:28:50;;;;;;;;;;;;;;;12.29;71.46;99303.78;4850619;29;19919;-81
2024/02/23 01:31:42;;;;;;;;;;;;;;;12.22;72.29;99294.69;4862151;29;19928;-82
2024/02/23 01:34:34;;;;;;;;;;;;;;;12.33;71.77;99280.13;4852103;29;19920;-81
2024/02/23 01:37:27;;;;;;;;;;;;;;;12.41;71.65;99276.38;4865575;29;19931;-81
2024/02/23 01:40:19;;;;;;;;;;;;;;;12.50;71.19;99276.13;4880914;29;19924;-80
2024/02/23 01:43:11;;;;;;;;;;;;;;;12.50;70.66;99270.66;4883961;29;19916;-81
2024/02/23 01:46:03;;;;;;;;;;;;;;;12.46;70.40;99269.81;4859661;29;19916;-80
2024/02/23 01:48:59;;;;;;;;;;;;;;;12.41;70.19;99270.91;4865339;29;19916;-82
2024/02/23 01:51:51;;;;;;;;;;;;;;;12.41;71.80;99264.66;4860948;29;19915;-81
2024/02/23 01:54:40;;;;;;;;;;;;;;;12.38;72.96;99263.47;4861173;29;20306;-82
2024/02/23 01:57:32;;;;;;;;;;;;;;;12.62;70.04;99237.78;4865467;29;19920;-80
2024/02/23 02:00:21;;;;;;;;;;;;;;;12.68;69.38;99238.25;4867437;29;19915;-81
2024/02/23 02:03:19;;;;;;;;;;;;;;;12.59;69.37;99232.28;4866181;29;20401;-81
2024/02/23 02:06:14;;;;;;;;;;;;;;;12.51;69.71;99255.88;4869286;29;20313;-81
2024/02/23 02:09:06;;;;;;;;;;;;;;;12.65;69.76;99247.16;4866388;29;19923;-81
2024/02/23 02:11:58;;;;;;;;;;;;;;;12.51;69.40;99236.00;4878934;29;19924;-82
2024/02/23 02:14:50;;;;;;;;;;;;;;;12.48;69.99;99243.00;4867851;29;19916;-80
2024/02/23 02:17:42;;;;;;;;;;;;;;;12.44;70.44;99229.28;4865502;29;19923;-81
2024/02/23 02:20:34;;;;;;;;;;;;;;;12.35;70.66;99234.19;4883196;29;19916;-82
2024/02/23 02:23:26;;;;;;;;;;;;;;;12.27;71.05;99226.25;4884963;29;19915;-81
2024/02/23 02:26:19;;;;;;;;;;;;;;;12.34;70.49;99220.94;4870385;29;20321;-81
2024/02/23 02:29:11;;;;;;;;;;;;;;;12.41;70.41;99215.59;4870484;29;19919;-81
2024/02/23 02:32:03;;;;;;;;;;;;;;;12.47;70.10;99219.59;4864714;29;19920;-81
2024/02/23 02:34:55;;;;;;;;;;;;;;;12.37;69.99;99204.63;4869793;29;19924;-81
2024/02/23 02:37:47;;;;;;;;;;;;;;;12.42;69.98;99200.81;4880843;29;19915;-81
2024/02/23 02:40:39;;;;;;;;;;;;;;;12.42;69.64;99189.91;4879282;29;19915;-81
2024/02/23 02:43:31;;;;;;;;;;;;;;;12.37;69.64;99184.78;4882185;29;19919;-81
2024/02/23 02:46:24;;;;;;;;;;;;;;;12.36;70.24;99167.63;4880596;29;19919;-81
2024/02/23 02:49:16;;;;;;;;;;;;;;;12.38;70.12;99172.72;4870314;29;19916;-81
2024/02/23 02:52:08;;;;;;;;;;;;;;;12.34;70.05;99169.91;4864483;29;19916;-81
2024/02/23 02:55:00;;;;;;;;;;;;;;;12.19;70.62;99154.47;4865976;29;19916;-81
2024/02/23 02:57:52;;;;;;;;;;;;;;;12.24;70.61;99145.25;4884294;29;19924;-81
2024/02/23 03:00:47;;;;;;;;;;;;;;;12.24;70.65;99134.34;4867245;29;19920;-81
2024/02/23 03:03:39;;;;;;;;;;;;;;;12.26;70.25;99132.00;4884050;29;19915;-81
2024/02/23 03:06:31;;;;;;;;;;;;;;;12.22;70.34;99137.41;4870781;29;19912;-81
2024/02/23 03:09:23;;;;;;;;;;;;;;;12.30;69.77;99133.66;4866598;29;19920;-80
2024/02/23 03:12:12;;;;;;;;;;;;;;;12.27;69.77;99122.69;4868613;29;19920;-81
2024/02/23 03:15:08;;;;;;;;;;;;;;;12.26;70.30;99115.66;4867452;29;19919;-81
2024/02/23 03:17:58;;;;;;;;;;;;;;;12.30;69.90;99106.38;4865508;29;19916;-81
2024/02/23 03:20:49;;;;;;;;;;;;;;;12.25;69.74;99109.41;4881677;29;19920;-80
2024/02/23 03:23:41;;;;;;;;;;;;;;;12.22;69.97;99112.09;4880340;29;19916;-81
2024/02/23 03:26:33;;;;;;;;;;;;;;;12.19;69.90;99105.44;4864166;29;19929;-81
2024/02/23 03:29:31;;;;;;;;;;;;;;;12.24;69.66;99105.13;4867937;29;19916;-81
2024/02/23 03:32:23;;;;;;;;;;;;;;;12.27;69.43;99107.13;4865795;29;20496;-80
2024/02/23 03:35:13;;;;;;;;;;;;;;;12.29;69.27;99098.59;4882433;29;19915;-80
2024/02/23 03:38:02;;;;;;;;;;;;;;;12.31;69.49;99090.81;4869816;29;19927;-80
2024/02/23 03:40:54;;;;;;;;;;;;;;;12.38;69.56;99093.66;4878124;29;19933;-81
2024/02/23 03:43:46;;;;;;;;;;;;;;;12.23;69.92;99095.38;4868440;29;19920;-81
2024/02/23 03:46:38;;;;;;;;;;;;;;;12.14;71.05;99075.75;4880025;29;19919;-81
2024/02/23 03:49:30;;;;;;;;;;;;;;;12.31;70.39;99069.03;4870318;29;19916;-82
2024/02/23 03:52:22;;;;;;;;;;;;;;;12.26;70.51;99072.84;4867567;29;20421;-82
2024/02/23 03:55:14;;;;;;;;;;;;;;;12.34;70.36;99063.63;4879527;29;19920;-81
2024/02/23 03:58:06;;;;;;;;;;;;;;;12.31;69.92;99053.47;4863422;29;19919;-81
2024/02/23 04:00:58;;;;;;;;;;;;;;;12.33;70.23;99050.38;4880578;29;19915;-81
2024/02/23 04:03:49;;;;;;;;;;;;;;;12.33;70.52;99037.53;4864983;29;19916;-80
2024/02/23 04:06:41;;;;;;;;;;;;;;;12.25;69.76;99026.88;4868671;29;19920;-80
2024/02/23 04:09:33;;;;;;;;;;;;;;;12.28;69.87;99037.06;4869910;29;19916;-81
2024/02/23 04:12:25;;;;;;;;;;;;;;;12.35;69.36;99032.47;4864061;29;20382;-81
2024/02/23 04:15:14;;;;;;;;;;;;;;;12.39;69.41;99035.28;4881085;29;20286;-81
2024/02/23 04:18:06;;;;;;;;;;;;;;;12.49;69.30;99031.13;4865422;29;19920;-81
2024/02/23 04:20:58;;;;;;;;;;;;;;;12.42;68.70;99032.59;4866874;29;19916;-81
2024/02/23 04:23:50;;;;;;;;;;;;;;;12.40;69.28;99034.88;4870434;29;19916;-80
2024/02/23 04:26:39;;;;;;;;;;;;;;;12.41;69.36;99024.78;4886739;29;19919;-81
2024/02/23 04:29:31;;;;;;;;;;;;;;;12.42;69.29;99023.63;4886610;29;19920;-81
2024/02/23 04:32:23;;;;;;;;;;;;;;;12.32;68.95;99016.09;4886773;29;19916;-81
2024/02/23 04:35:15;;;;;;;;;;;;;;;12.35;68.80;98999.78;4867384;29;20390;-81
2024/02/23 04:38:07;;;;;;;;;;;;;;;12.38;68.74;98990.09;4884354;29;19915;-81
2024/02/23 04:40:59;;;;;;;;;;;;;;;12.41;69.01;98997.50;4868605;29;19920;-81
2024/02/23 04:43:51;;;;;;;;;;;;;;;12.37;68.51;98996.69;4878066;29;19920;-80
2024/02/23 04:46:44;;;;;;;;;;;;;;;12.45;68.39;98995.63;4869928;29;19916;-81
2024/02/23 04:49:36;;;;;;;;;;;;;;;12.49;68.28;98982.84;4867889;29;19915;-81
2024/02/23 04:52:28;;;;;;;;;;;;;;;12.45;67.74;98987.44;4886551;29;19916;-81
2024/02/23 04:55:19;;;;;;;;;;;;;;;12.34;67.40;98995.47;4882855;29;20366;-81
2024/02/23 04:58:11;;;;;;;;;;;;;;;12.19;69.01;98990.97;4866448;29;20305;-80
2024/02/23 05:01:04;;;;;;;;;;;;;;;12.14;69.00;98985.09;4882759;29;19916;-81
2024/02/23 05:03:59;;;;;;;;;;;;;;;12.00;69.32;98969.28;4865759;29;19916;-81
2024/02/23 05:06:55;;;;;;;;;;;;;;;12.04;69.52;98972.09;4886436;29;19920;-81
2024/02/23 05:09:48;;;;;;;;;;;;;;;12.05;68.76;98965.47;4861486;29;20394;-81
2024/02/23 05:12:40;;;;;;;;;;;;;;;12.19;69.18;98952.06;4841435;29;19919;-80
2024/02/23 05:15:32;;;;;;;;;;;;;;;12.20;68.86;98945.44;4849805;29;19920;-80
2024/02/23 05:18:22;;;;;;;;;;;;;;;12.29;68.26;98935.84;4848297;29;19915;-81
2024/02/23 05:21:13;;;;;;;;;;;;;;;12.26;67.72;98935.78;4843168;29;19920;-81
2024/02/23 05:24:05;;;;;;;;;;;;;;;12.40;68.64;98922.34;4858581;29;20400;-81
2024/02/23 05:26:57;;;;;;;;;;;;;;;12.35;68.39;98906.31;4853394;29;19923;-81
2024/02/23 05:29:49;;;;;;;;;;;;;;;12.37;68.41;98901.28;4851923;29;19916;-81
2024/02/23 05:32:41;;;;;;;;;;;;;;;12.43;67.73;98883.44;4849744;29;19920;-80
2024/02/23 05:35:33;;;;;;;;;;;;;;;12.57;67.94;98891.78;4861389;29;20305;-81
2024/02/23 05:38:25;;;;;;;;;;;;;;;12.62;67.46;98893.38;4850226;29;19916;-80
2024/02/23 05:41:20;;;;;;;;;;;;;;;12.74;67.49;98891.19;4862362;29;19927;-81
2024/02/23 05:44:13;;;;;;;;;;;;;;;12.82;66.93;98898.28;4860949;29;19924;-81
2024/02/23 05:47:05;;;;;;;;;;;;;;;12.72;66.75;98898.97;4864403;29;19916;-81
2024/02/23 05:49:57;;;;;;;;;;;;;;;12.63;67.27;98917.56;4862358;29;19916;-81
2024/02/23 05:52:49;;;;;;;;;;;;;;;12.62;67.72;98937.81;4882112;29;19919;-80
2024/02/23 05:55:41;;;;;;;;;;;;;;;12.56;67.69;98927.59;4885584;29;19916;-81
2024/02/23 05:58:33;;;;;;;;;;;;;;;12.56;67.76;98928.38;4862728;29;20476;-81
2024/02/23 06:01:23;;;;;;;;;;;;;;;12.58;67.81;98917.91;4862962;29;19920;-80
2024/02/23 06:04:15;;;;;;;;;;;;;;;12.61;67.83;98928.06;4853084;29;19916;-80
2024/02/23 06:07:07;;;;;;;;;;;;;;;12.78;67.88;98924.75;4860464;29;20374;-81
2024/02/23 06:09:59;;;;;;;;;;;;;;;13.03;68.39;98929.66;4849845;29;19920;-81
2024/02/23 06:12:51;;;;;;;;;;;;;;;13.32;68.57;98930.72;4852733;29;19912;-77
2024/02/23 06:15:43;;;;;;;;;;;;;;;13.39;68.26;98928.88;4866123;29;19920;-77
2024/02/23 06:18:35;;;;;;;;;;;;;;;13.34;66.71;98944.81;4862757;29;19916;-76
2024/02/23 06:21:27;;;;;;;;;;;;;;;13.30;66.57;98954.91;4847191;29;19920;-78
2024/02/23 06:24:19;;;;;;;;;;;;;;;13.55;66.42;98956.69;4850089;29;19920;-77
2024/02/23 06:27:11;;;;;;;;;;;;;;;13.51;66.49;98955.88;4848517;29;19916;-77
2024/02/23 06:30:03;;;;;;;;;;;;;;;13.57;65.72;98959.81;4865168;29;19924;-78
2024/02/23 06:32:55;;;;;;;;;;;;;;;13.31;65.96;98957.25;4850133;29;19927;-77
2024/02/23 06:35:47;;;;;;;;;;;;;;;13.38;67.66;98957.31;4862003;29;19939;-78
2024/02/23 06:38:39;;;;;;;;;;;;;;;13.39;68.31;98953.44;4861877;29;20302;-78
2024/02/23 06:41:32;;;;;;;;;;;;;;;13.41;67.72;98961.25;4880362;29;19916;-78
2024/02/23 06:44:24;;;;;;;;;;;;;;;13.65;67.29;98955.22;4879478;29;20294;-78
2024/02/23 06:47:16;;;;;;;;;;;;;;;13.77;67.44;98954.13;4859398;29;19916;-78
2024/02/23 06:50:08;;;;;;;;;;;;;;;13.86;66.73;98946.41;4850826;29;19919;-78
2024/02/23 06:53:00;;;;;;;;;;;;;;;14.02;66.71;98946.88;4844415;29;20651;-79
2024/02/23 06:55:52;;;;;;;;;;;;;;;14.28;65.08;98932.16;4849566;29;20298;-78
2024/02/23 06:58:44;;;;;;;;;;;;;;;14.07;65.77;98947.28;4861109;29;19924;-77
2024/02/23 07:01:36;;;;;;;;;;;;;;;13.65;66.98;98942.34;4860972;29;19920;-81
2024/02/23 07:04:28;;;;;;;;;;;;;;;13.19;69.06;98938.44;4848504;29;19916;-80
2024/02/23 07:07:20;;;;;;;;;;;;;;;12.74;70.90;98932.09;4846235;29;19920;-81
2024/02/23 07:10:13;;;;;;;;;;;;;;;12.66;71.50;98933.16;4849341;29;19916;-80
2024/02/23 07:13:05;;;;;;;;;;;;;;;12.57;72.32;98938.13;4847531;29;19916;-80
2024/02/23 07:15:57;;;;;;;;;;;;;;;12.61;72.51;98930.78;4850872;29;19916;-80
2024/02/23 07:18:49;;;;;;;;;;;;;;;12.74;72.99;98940.28;4857664;29;20402;-80
2024/02/23 07:21:41;;;;;;;;;;;;;;;12.73;73.54;98932.47;4839204;29;19921;-80
2024/02/23 07:24:33;;;;;;;;;;;;;;;12.58;73.65;98926.06;4863228;29;20306;-80
2024/02/23 07:27:25;;;;;;;;;;;;;;;12.33;74.91;98935.91;4857568;29;19916;-80
2024/02/23 07:30:17;;;;;;;;;;;;;;;12.14;75.56;98942.25;4851728;29;19916;-81
2024/02/23 07:33:09;;;;;;;;;;;;;;;12.22;75.37;98938.47;4847735;29;20487;-81
2024/02/23 07:36:01;;;;;;;;;;;;;;;12.12;75.51;98935.59;4847003;29;20374;-81
2024/02/23 07:38:52;;;;;;;;;;;;;;;11.70;77.61;98941.97;4850067;29;19916;-80
2024/02/23 07:41:42;;;;;;;;;;;;;;;11.64;78.11;98932.53;4845961;29;20378;-79
2024/02/23 07:44:34;;;;;;;;;;;;;;;11.67;78.54;98923.66;4846729;29;19920;-81
2024/02/23 07:47:26;;;;;;;;;;;;;;;12.00;77.11;98923.78;4856160;29;19920;-81
2024/02/23 07:50:19;;;;;;;;;;;;;;;12.18;76.71;98931.41;4849208;29;19916;-80
2024/02/23 07:53:11;;;;;;;;;;;;;;;12.38;75.65;98932.84;4858948;29;19916;-81
2024/02/23 07:56:01;;;;;;;;;;;;;;;12.30;75.54;98936.63;4848812;29;19916;-81
2024/02/23 07:58:51;;;;;;;;;;;;;;;12.24;75.80;98936.16;4847938;29;19919;-81
2024/02/23 08:01:44;;;;;;;;;;;;;;;12.29;76.28;98926.91;4863413;29;19920;-81
2024/02/23 08:04:36;;;;;;;;;;;;;;;12.24;76.04;98929.94;4851894;29;19916;-81
2024/02/23 08:07:28;;;;;;;;;;;;;;;12.27;75.88;98932.72;4849652;29;19916;-80
2024/02/23 08:10:20;;;;;;;;;;;;;;;12.22;76.03;98935.75;4853068;29;19920;-81
2024/02/23 08:13:10;;;;;;;;;;;;;;;12.20;76.15;98942.72;4868317;29;19946;-80
2024/02/23 08:16:02;;;;;;;;;;;;;;;12.24;76.36;98941.59;4847681;29;19931;-80
2024/02/23 08:18:54;;;;;;;;;;;;;;;12.11;77.24;98934.03;4850175;29;19920;-80
2024/02/23 08:21:43;;;;;;;;;;;;;;;12.12;77.36;98941.84;4862940;29;19920;-80
2024/02/23 08:24:35;;;;;;;;;;;;;;;12.07;77.64;98936.72;4855327;29;20390;-80
2024/02/23 08:27:27;;;;;;;;;;;;;;;12.12;77.39;98932.88;4851522;29;19920;-80
2024/02/23 08:30:19;;;;;;;;;;;;;;;11.96;77.44;98936.56;4850651;29;20351;-81
2024/02/23 08:33:12;;;;;;;;;;;;;;;11.88;79.04;98953.19;4866262;29;19939;-81
2024/02/23 08:36:05;;;;;;;;;;;;;;;11.93;78.31;98955.59;4850614;29;19916;-81
2024/02/23 08:38:58;;;;;;;;;;;;;;;12.16;78.30;98955.50;4848592;29;20400;-82
2024/02/23 08:41:50;;;;;;;;;;;;;;;12.51;76.53;98947.78;4862238;29;19916;-80
2024/02/23 08:44:42;;;;;;;;;;;;;;;12.40;77.81;98946.88;4864045;29;19916;-81
2024/02/23 08:47:34;;;;;;;;;;;;;;;12.48;76.30;98942.31;4852622;29;20900;-82
2024/02/23 08:50:26;;;;;;;;;;;;;;;12.48;75.65;98937.63;4849935;29;20587;-81
2024/02/23 08:53:15;;;;;;;;;;;;;;;12.28;77.09;98944.41;4849852;29;19920;-82
2024/02/23 08:56:08;;;;;;;;;;;;;;;12.28;77.06;98947.13;4866169;29;19938;-81
2024/02/23 08:59:00;;;;;;;;;;;;;;;12.22;77.79;98943.13;4844983;29;19916;-82
2024/02/23 09:01:52;;;;;;;;;;;;;;;12.32;77.35;98940.56;4837000;29;19916;-81
2024/02/23 09:04:44;;;;;;;;;;;;;;;12.53;76.28;98934.59;4859077;29;19924;-81
2024/02/23 09:07:31;;;;;;;;;;;;;;;12.41;76.37;98941.06;4846986;29;19916;-79
2024/02/23 09:10:23;;;;;;;;;;;;;;;12.08;77.48;98943.75;4830430;29;20451;-80
2024/02/23 09:13:15;;;;;;;;;;;;;;;11.53;80.98;98948.72;4845193;29;19916;-81
2024/02/23 09:16:07;;;;;;;;;;;;;;;11.56;86.04;98947.22;4856938;29;19919;-81
2024/02/23 09:18:56;;;;;;;;;;;;;;;11.71;84.15;98950.94;4857373;29;19916;-82
2024/02/23 09:21:48;;;;;;;;;;;;;;;11.51;84.01;98940.13;4847861;29;19917;-82
2024/02/23 09:24:41;;;;;;;;;;;;;;;11.45;84.04;98933.41;4844266;29;19916;-81
2024/02/23 09:27:33;;;;;;;;;;;;;;;11.71;84.34;98935.38;4844058;29;20294;-80
2024/02/23 09:30:25;;;;;;;;;;;;;;;12.11;84.07;98931.31;4847924;29;19920;-80
2024/02/23 09:33:17;;;;;;;;;;;;;;;12.47;81.07;98922.44;4834692;29;19915;-80
2024/02/23 09:36:09;;;;;;;;;;;;;;;12.36;80.01;98916.06;4850186;29;20382;-81
2024/02/23 09:39:00;;;;;;;;;;;;;;;12.34;80.81;98926.56;4842433;29;19916;-81
2024/02/23 09:41:56;;;;;;;;;;;;;;;12.35;80.54;98931.63;4859013;29;20305;-78
2024/02/23 09:44:51;;;;;;;;;;;;;;;12.30;80.15;98942.84;4843859;29;19916;-79
2024/02/23 09:47:43;;;;;;;;;;;;;;;12.32;80.41;98945.22;4842358;29;19916;-79
2024/02/23 09:50:35;;;;;;;;;;;;;;;12.48;79.70;98936.84;4845797;29;19980;-79
2024/02/23 09:53:27;;;;;;;;;;;;;;;12.57;79.06;98953.72;4844392;29;19916;-80
2024/02/23 09:56:19;;;;;;;;;;;;;;;12.51;79.91;98955.19;4841106;29;19920;-79
2024/02/23 09:59:12;;;;;;;;;;;;;;;12.59;79.14;98957.66;4845114;29;20368;-80
2024/02/23 10:02:09;;;;;;;;;;;;;;;12.73;78.89;98951.56;4841117;29;19920;-80
2024/02/23 10:05:02;;;;;;;;;;;;;;;12.80;78.37;98954.34;4852135;29;19920;-79
2024/02/23 10:07:57;;;;;;;;;;;;;;;12.82;78.28;98958.28;4844221;29;19916;-79
2024/02/23 10:10:49;;;;;;;;;;;;;;;12.93;78.29;98965.81;4847677;29;20386;-80
2024/02/23 10:13:43;;;;;;;;;;;;;;;13.10;76.89;98967.94;4848745;29;20367;-80
2024/02/23 10:16:35;;;;;;;;;;;;;;;13.10;76.80;98963.28;4861805;29;20389;-80
2024/02/23 10:19:29;;;;;;;;;;;;;;;13.07;76.68;98950.38;4850492;29;19920;-80
2024/02/23 10:22:21;;;;;;;;;;;;;;;13.07;77.21;98960.50;4848830;29;19920;-80
2024/02/23 10:25:14;;;;;;;;;;;;;;;13.10;76.54;98951.56;4846700;29;19916;-80
2024/02/23 10:28:06;;;;;;;;;;;;;;;13.08;76.65;98945.69;4863172;29;19919;-80
2024/02/23 10:30:58;;;;;;;;;;;;;;;13.00;78.03;98954.97;4861208;29;19917;-80
2024/02/23 10:33:52;;;;;;;;;;;;;;;13.14;77.46;98960.63;4859397;29;19920;-80
2024/02/23 10:36:45;;;;;;;;;;;;;;;13.37;76.38;98950.28;4849323;29;20434;-79
2024/02/23 10:39:38;;;;;;;;;;;;;;;13.29;76.38;98937.75;4846574;29;20316;-79
2024/02/23 10:42:33;;;;;;;;;;;;;;;13.42;76.16;98936.28;4849691;29;19916;-79
2024/02/23 10:45:22;;;;;;;;;;;;;;;13.49;75.88;98941.81;4847529;29;19916;-79
2024/02/23 10:48:14;;;;;;;;;;;;;;;13.30;76.58;98952.97;4859137;29;19923;-79
2024/02/23 10:51:07;;;;;;;;;;;;;;;13.14;77.66;98950.47;4843943;29;19916;-80
2024/02/23 10:53:59;;;;;;;;;;;;;;;13.82;76.00;98948.28;4840303;29;19920;-79
2024/02/23 10:56:51;;;;;;;;;;;;;;;13.47;75.63;98948.81;4835128;29;19916;-80
2024/02/23 10:59:43;;;;;;;;;;;;;;;13.19;77.36;98958.34;4848787;29;19916;-81
2024/02/23 11:02:37;;;;;;;;;;;;;;;12.97;79.13;98952.97;4861488;29;19923;-80
2024/02/23 11:05:26;;;;;;;;;;;;;;;12.85;79.96;98956.75;4850222;29;19915;-80
2024/02/23 11:08:16;;;;;;;;;;;;;;;12.81;80.10;98956.72;4862118;29;19916;-80
2024/02/23 11:11:14;;;;;;;;;;;;;;;12.73;80.70;98952.34;4846585;29;19920;-80
2024/02/23 11:14:10;;;;;;;;;;;;;;;12.82;80.13;98961.03;4863045;29;20305;-80
2024/02/23 11:17:02;;;;;;;;;;;;;;;12.82;80.50;98958.28;4860604;29;19916;-79
2024/02/23 11:19:54;;;;;;;;;;;;;;;12.92;80.45;98947.88;4850032;29;19916;-79
2024/02/23 11:22:41;;;;;;;;;;;;;;;12.92;80.19;98950.59;4864465;29;19920;-80
2024/02/23 11:25:34;;;;;;;;;;;;;;;12.81;81.38;98954.00;4861998;29;19924;-80
2024/02/23 11:28:26;;;;;;;;;;;;;;;12.93;80.80;98947.50;4866883;29;20394;-80
2024/02/23 11:31:21;;;;;;;;;;;;;;;13.07;80.04;98946.84;4855503;29;19919;-79
2024/02/23 11:34:12;;;;;;;;;;;;;;;13.12;79.59;98941.88;4870885;29;19924;-80
2024/02/23 11:37:09;;;;;;;;;;;;;;;13.05;79.88;98949.97;4855397;29;19920;-81
2024/02/23 11:39:59;;;;;;;;;;;;;;;12.92;80.50;98942.41;4850495;29;19920;-80
2024/02/23 11:42:51;;;;;;;;;;;;;;;12.90;80.07;98940.03;4867239;29;19920;-80
2024/02/23 11:45:43;;;;;;;;;;;;;;;12.81;80.77;98928.66;4851399;29;19920;-80
2024/02/23 11:48:35;;;;;;;;;;;;;;;12.89;81.03;98918.63;4849161;29;20002;-80
2024/02/23 11:51:29;;;;;;;;;;;;;;;12.94;81.24;98904.63;4850500;29;19915;-80
2024/02/23 11:54:21;;;;;;;;;;;;;;;12.96;81.10;98902.31;4850196;29;19924;-80
2024/02/23 11:57:13;;;;;;;;;;;;;;;13.00;80.88;98908.59;4861881;29;19920;-81
2024/02/23 12:00:11;;;;;;;;;;;;;;;13.01;80.60;98907.41;4851923;29;20335;-80
2024/02/23 12:03:03;;;;;;;;;;;;;;;13.02;79.87;98906.25;4849586;29;19916;-80
2024/02/23 12:05:55;;;;;;;;;;;;;;;12.84;81.13;98903.38;4852866;29;19920;-79
2024/02/23 12:08:44;;;;;;;;;;;;;;;12.68;81.92;98908.25;4850309;29;19916;-80
2024/02/23 12:11:36;;;;;;;;;;;;;;;12.58;82.80;98909.72;4848318;29;19920;-79
2024/02/23 12:14:28;;;;;;;;;;;;;;;12.74;81.75;98918.47;4865492;29;19924;-80
2024/02/23 12:17:20;;;;;;;;;;;;;;;12.58;83.00;98915.16;4848324;29;20301;-80
2024/02/23 12:20:10;;;;;;;;;;;;;;;12.41;83.98;98926.63;4852735;29;19916;-80
2024/02/23 12:23:03;;;;;;;;;;;;;;;12.44;83.81;98925.91;4851363;29;19916;-80
2024/02/23 12:26:01;;;;;;;;;;;;;;;11.91;86.94;98919.75;4862607;29;19924;-80
2024/02/23 12:28:53;;;;;;;;;;;;;;;11.96;86.21;98925.66;4865418;29;19916;-80
2024/02/23 12:31:42;;;;;;;;;;;;;;;12.08;86.13;98918.44;4848760;29;19916;-79
2024/02/23 12:34:34;;;;;;;;;;;;;;;12.08;85.57;98926.59;4861832;29;19928;-80
2024/02/23 12:37:26;;;;;;;;;;;;;;;12.00;85.13;98921.06;4864869;29;19916;-80
2024/02/23 12:40:18;;;;;;;;;;;;;;;12.00;86.14;98923.78;4849440;29;20374;-79
2024/02/23 12:43:08;;;;;;;;;;;;;;;12.44;85.47;98915.00;4852193;29;19916;-81
2024/02/23 12:46:00;;;;;;;;;;;;;;;12.20;84.59;98916.25;4862367;29;19920;-79
2024/02/23 12:48:52;;;;;;;;;;;;;;;11.84;88.12;98923.16;4856359;29;19916;-79
2024/02/23 12:51:44;;;;;;;;;;;;;;;11.49;92.72;98917.13;4844019;29;19916;-80
2024/02/23 12:54:36;;;;;;;;;;;;;;;11.50;96.22;98916.00;4836758;29;19920;-79
2024/02/23 12:57:28;;;;;;;;;;;;;;;11.31;96.33;98910.63;4860723;29;19920;-79
2024/02/23 13:00:19;;;;;;;;;;;;;;;11.20;97.03;98901.50;4865926;29;19916;-80
2024/02/23 13:03:11;;;;;;;;;;;;;;;11.27;99.12;98907.88;4862859;29;19916;-80
2024/02/23 13:06:04;;;;;;;;;;;;;;;11.32;99.56;98899.41;4859820;29;19916;-79
2024/02/23 13:08:56;;;;;;;;;;;;;;;11.28;99.33;98900.47;4863813;29;19916;-80
2024/02/23 13:11:48;;;;;;;;;;;;;;;11.33;99.35;98897.44;4848007;29;20393;-81
2024/02/23 13:14:41;;;;;;;;;;;;;;;11.32;98.39;98887.72;4851443;29;19924;-85
2024/02/23 13:17:33;;;;;;;;;;;;;;;11.34;96.88;98885.41;4850490;29;19920;-80
2024/02/23 13:20:26;;;;;;;;;;;;;;;11.59;96.96;98876.47;4841431;29;19919;-80
2024/02/23 13:23:18;;;;;;;;;;;;;;;11.58;97.66;98872.16;4863389;29;20377;-79
2024/02/23 13:26:10;;;;;;;;;;;;;;;11.61;97.26;98873.41;4862043;29;19916;-79
2024/02/23 13:29:02;;;;;;;;;;;;;;;11.63;95.56;98892.84;4851317;29;19916;-79
2024/02/23 13:31:54;;;;;;;;;;;;;;;11.63;94.98;98922.03;4861502;29;19920;-79
2024/02/23 13:34:46;;;;;;;;;;;;;;;11.65;93.68;98915.06;4861193;29;20394;-80
2024/02/23 13:37:38;;;;;;;;;;;;;;;11.53;92.12;98916.03;4850459;29;19916;-80
2024/02/23 13:40:30;;;;;;;;;;;;;;;11.52;94.63;98930.03;4861383;29;19916;-80
2024/02/23 13:43:22;;;;;;;;;;;;;;;11.46;96.21;98926.03;4860479;29;19916;-79
2024/02/23 13:46:14;;;;;;;;;;;;;;;11.51;95.35;98917.56;4858672;29;19920;-79
2024/02/23 13:49:09;;;;;;;;;;;;;;;11.51;95.70;98898.53;4853628;29;19920;-79
2024/02/23 13:52:01;;;;;;;;;;;;;;;11.53;96.75;98901.63;4851089;29;19919;-79
2024/02/23 13:54:53;;;;;;;;;;;;;;;11.51;96.14;98895.78;4835704;29;19946;-80
2024/02/23 13:57:45;;;;;;;;;;;;;;;11.43;97.04;98899.53;4855133;29;19924;-78
2024/02/23 14:00:37;;;;;;;;;;;;;;;11.44;98.47;98904.63;4843141;29;19916;-79
2024/02/23 14:03:29;;;;;;;;;;;;;;;11.22;97.94;98886.41;4861658;29;19920;-79
2024/02/23 14:06:21;;;;;;;;;;;;;;;11.04;97.43;98894.25;4860064;29;19920;-79
2024/02/23 14:09:13;;;;;;;;;;;;;;;10.88;98.22;98885.41;4862902;29;19915;-80
2024/02/23 14:12:05;;;;;;;;;;;;;;;10.92;98.59;98880.06;4846051;29;19920;-80
2024/02/23 14:14:57;;;;;;;;;;;;;;;10.90;98.89;98866.03;4857609;29;19924;-78
2024/02/23 14:17:49;;;;;;;;;;;;;;;10.70;98.10;98889.75;4855334;29;20383;-79
2024/02/23 14:20:41;;;;;;;;;;;;;;;10.82;98.69;98889.56;4842469;29;20366;-79
2024/02/23 14:23:33;;;;;;;;;;;;;;;10.82;99.28;98881.41;4851972;29;19924;-78
2024/02/23 14:26:25;;;;;;;;;;;;;;;10.85;99.62;98886.16;4851551;29;20357;-79
2024/02/23 14:29:17;;;;;;;;;;;;;;;10.88;99.64;98885.41;4845593;29;19924;-79
2024/02/23 14:32:09;;;;;;;;;;;;;;;10.89;99.37;98880.78;4857756;29;19916;-79
2024/02/23 14:35:01;;;;;;;;;;;;;;;10.88;98.76;98877.25;4849351;29;19924;-79
2024/02/23 14:37:52;;;;;;;;;;;;;;;10.90;99.38;98872.25;4842921;29;19920;-78
2024/02/23 14:40:44;;;;;;;;;;;;;;;10.90;99.04;98868.75;4859468;29;19916;-79
2024/02/23 14:43:36;;;;;;;;;;;;;;;10.94;98.69;98875.03;4852540;29;19915;-79
2024/02/23 14:46:28;;;;;;;;;;;;;;;11.00;97.88;98882.53;4849197;29;19931;-79
2024/02/23 14:49:20;;;;;;;;;;;;;;;10.92;98.23;98886.25;4846880;29;19916;-79
2024/02/23 14:52:12;;;;;;;;;;;;;;;10.89;98.03;98881.56;4858761;29;19916;-79
2024/02/23 14:55:04;;;;;;;;;;;;;;;10.83;98.56;98887.66;4862155;29;19924;-79